MacCan, Canada
Current Conditions -  °F | °C
As of 3:00 AM on Monday 22 Dec 2014 (Local Time) from CYQM Reporting Station
Snow Showers Snow Showers  
Wind Chill: 25°   Ceiling: 1900
Heat Index: 25°   Visibility: 15mi
Dew Point: 23°   Wind: 3mph
Humidity: 93%   Direction: 340°NNW
Pressure: 30.43"   Gusts: NA
Location:  45.72°N, 64.25°W
Report Text: CYQM 220700Z 34003KT 15SM -SHSN OVC019 M04/M05 A3043 RMK SC8 SLP309
Loading
Personal Weather Stations






























Interactive Weather Map New forecast layout! Learn more

10-Day Weather Forecast

Advertisements
Track Severe Weather on mobile